Latest Coastal Weather Observations for Kingscote

IDS60701

Issued at 5:41 pm CST Sunday 26 April 2015 (issued every 10 minutes, with the page automatically refreshed every 10 minutes)

About coastal observations | Map of coastal stations | Coastal observations for SA | Marine services | Other Formats
Station Details ID: 022841 Name: KINGSCOTE AERO Lat: -35.71 Lon: 137.52 Height: 6.23 m
Data from the previous 72 hours. | See also: Recent months at Kingscote
Date/Time
CST
Temp

°C
Wind Pressure Rain
since 9am
mm
Weather Cloud Vis
km
Sea
Height
m
Swell
Dir
 
Speed
knots
Gust
knots
hPa Trend Height
m
Period
s
Dir
26/05:30pm 14.4 SSW 9 14 1025.8 - 0.0 - Cloudy 10 - - - -
26/05:00pm 14.4 SSW 11 16 1025.6 - 0.0 - Cloudy 10 - - - -
26/04:30pm 14.6 SSW 11 15 1025.5 - 0.0 - Cloudy 10 - - - -
26/04:00pm 15.1 S 10 13 1025.4 - 0.0 - Partly cloudy 10 - - - -
26/03:30pm 15.0 SSW 10 14 1025.3 - 0.0 - Partly cloudy 10 - - - -
26/03:00pm 14.9 SSW 10 14 1025.2 - 0.0 - Cloudy 10 - - - -
26/02:30pm 15.0 SSW 11 15 1025.1 - 0.0 - Cloudy 10 - - - -
26/02:00pm 15.3 SSW 9 12 1025.1 - 0.0 - Cloudy 10 - - - -
26/01:30pm 15.1 SSW 10 16 1025.1 - 0.0 - Cloudy 10 - - - -
26/01:00pm 15.2 S 10 14 1025.2 - 0.0 - Cloudy 10 - - - -
26/12:30pm 15.6 S 12 18 1025.3 - 0.0 - Cloudy 10 - - - -
26/12:00pm 15.7 SSW 11 16 1025.5 - 0.0 - Cloudy 10 - - - -
26/11:30am 15.2 SSW 11 15 1025.8 - 0.0 - Partly cloudy 10 - - - -
26/11:00am 14.8 SSW 8 11 1025.8 - 0.0 - Cloudy 10 - - - -
26/10:30am 14.6 S 12 17 1025.8 - 0.0 - Partly cloudy 10 - - - -
26/10:00am 14.9 SSW 13 16 1025.7 - 0.0 - Cloudy 10 - - - -
26/09:30am 14.3 SW 5 8 1025.6 - 0.0 - Cloudy 10 - - - -
26/09:00am 13.6 WSW 6 7 1025.5 - 2.2 - Cloudy 10 - - - -
26/08:30am 13.0 SW 5 7 1025.2 - 2.2 - Cloudy 10 - - - -
26/08:00am 11.8 SSW 5 7 1024.9 - 2.2 - Partly cloudy 10 - - - -
26/07:30am 11.0 SW 4 6 1024.5 - 2.2 - Partly cloudy 10 - - - -
26/07:00am 10.8 SSW 4 6 1024.1 - 2.2 - Partly cloudy 10 - - - -
26/06:30am 11.5 SSW 6 7 1023.9 - 2.2 - Partly cloudy 10 - - - -
26/06:00am 11.7 SSW 10 13 1023.4 - 2.2 - Cloudy 10 - - - -
26/05:30am 10.2 SW 8 10 1023.2 - 2.2 - Cloudy 10 - - - -
26/05:00am 9.2 WSW 6 7 1023.0 - 2.2 - Cloudy 10 - - - -
26/04:30am 8.3 WSW 5 6 1022.8 - 2.2 - Partly cloudy 10 - - - -
26/04:10am 7.3 SW 6 7 1022.7 - 2.2 - Partly cloudy 10 - - - -
26/04:00am 7.1 SW 5 7 1022.6 - 2.2 - Partly cloudy 5 - - - -
26/03:51am 8.0 SW 4 5 1022.4 - 2.2 - Partly cloudy 5 - - - -
26/03:30am 8.1 SW 4 6 1022.5 - 2.2 - - 10 - - - -
26/03:00am 8.9 W 5 6 1022.5 - 2.2 - - 10 - - - -
26/02:30am 9.1 WSW 5 6 1022.5 - 2.2 - Partly cloudy 10 - - - -
26/02:00am 9.7 SW 5 6 1022.7 - 2.2 - Partly cloudy 10 - - - -
26/01:30am 10.4 SW 5 6 1022.6 - 2.2 - Partly cloudy 10 - - - -
26/01:00am 10.0 W 5 6 1022.6 - 2.2 - Partly cloudy 10 - - - -
26/12:30am 10.4 WSW 5 6 1022.5 - 2.2 - Partly cloudy 10 - - - -
26/12:00am 11.1 SW 6 10 1022.3 - 2.2 - Cloudy 10 - - - -
 
Date/Time
CST
Temp

°C
Wind Pressure Rain
since 9am
mm
Weather Cloud Vis
km
Sea
Height
m
Swell
Dir
 
Speed
knots
Gust
knots
hPa Trend Height
m
Period
s
Dir
25/11:30pm 10.7 SSE 5 8 1022.2 - 2.2 - Partly cloudy 10 - - - -
25/11:00pm 10.2 SW 7 8 1022.4 - 2.2 - Partly cloudy 10 - - - -
25/10:30pm 11.7 SSW 8 13 1022.3 - 2.2 - Partly cloudy 10 - - - -
25/10:00pm 12.0 S 9 13 1022.2 - 2.2 - Partly cloudy 10 - - - -
25/09:30pm 12.4 SSW 9 11 1021.7 - 2.2 - Partly cloudy 10 - - - -
25/09:00pm 11.7 SSW 6 8 1021.4 - 2.2 - Mostly cloudy 10 - - - -
25/08:30pm 11.2 SW 5 6 1021.2 - 2.2 - Cloudy 10 - - - -
25/08:00pm 11.7 SSW 5 6 1020.8 - 2.2 - Cloudy 10 - - - -
25/07:30pm 11.8 SW 5 6 1020.8 - 2.2 - Partly cloudy 10 - - - -
25/07:00pm 11.4 SSW 7 9 1020.6 - 2.2 - Partly cloudy 10 - - - -
25/06:30pm 12.2 SSW 8 11 1020.2 - 2.2 - Partly cloudy 10 - - - -
25/06:00pm 12.6 S 10 15 1019.5 - 2.2 - Partly cloudy 10 - - - -
25/05:30pm 12.8 S 11 15 1019.2 - 2.2 - Partly cloudy 10 - - - -
25/05:00pm 12.9 S 16 21 1018.9 - 2.2 - Partly cloudy 10 - - - -
25/04:30pm 13.4 S 16 21 1018.6 - 2.2 - Partly cloudy 10 - - - -
25/04:00pm 13.6 S 17 21 1018.1 - 2.2 - Partly cloudy 10 - - - -
25/03:47pm 12.9 S 17 23 1018.1 - 2.2 - Partly cloudy 6 - - - -
25/03:46pm 12.9 S 17 22 1018.0 - 2.2 - Partly cloudy 6 - - - -
25/03:34pm 13.5 S 17 24 1017.9 - 2.0 - Partly cloudy 5 - - - -
25/03:31pm 13.3 S 18 24 1017.9 - 2.0 - Partly cloudy 7 - - - -
25/03:30pm 13.2 S 17 24 1017.9 - 1.8 - Partly cloudy 8 - - - -
25/03:28pm 13.2 S 17 24 1017.9 - 1.8 - Partly cloudy 10 - - - -
25/03:22pm 13.6 S 17 21 1017.7 - 1.8 - Partly cloudy 9 - - - -
25/03:21pm 13.7 S 17 27 1017.7 - 1.8 - Partly cloudy 8 - - - -
25/03:11pm 12.9 S 20 28 1017.6 - 1.8 - Partly cloudy 5 - - - -
25/03:10pm 13.1 S 19 28 1017.6 - 1.6 - Partly cloudy 5 - - - -
25/03:04pm 13.8 S 17 27 1017.3 - 1.4 - Partly cloudy 10 - - - -
25/03:00pm 14.7 S 15 23 1017.3 - 1.4 Recent precip. Cloudy 10 - - - -
25/02:50pm 13.9 S 15 22 1017.2 - 1.4 - Partly cloudy 10 - - - -
25/02:45pm 13.6 S 17 27 1017.2 - 1.4 - Partly cloudy 10 - - - -
25/02:32pm 13.4 S 19 25 1017.0 - 1.4 - Partly cloudy 5 - - - -
25/02:30pm 13.4 S 19 25 1017.0 - 1.2 - Partly cloudy 6 - - - -
25/02:16pm 14.7 S 19 30 1016.7 - 1.2 - Partly cloudy 10 - - - -
25/02:00pm 15.5 SSE 17 24 1016.4 - 1.2 - Partly cloudy 10 - - - -
25/01:55pm 14.7 S 19 29 1016.4 - 1.2 - Partly cloudy 10 - - - -
25/01:30pm 15.3 S 21 27 1016.1 - 1.2 - Partly cloudy 10 - - - -
25/01:22pm 15.3 S 16 24 1016.0 - 1.2 - Partly cloudy 10 - - - -
25/01:12pm 14.2 S 19 27 1016.1 - 1.2 - Partly cloudy 5 - - - -
25/01:00pm 15.9 S 20 27 1015.9 - 0.8 - Partly cloudy 10 - - - -
25/12:30pm 15.6 S 15 20 1015.8 - 0.8 - Partly cloudy 10 - - - -
25/12:27pm 15.3 S 15 20 1015.8 - 0.8 - Partly cloudy 10 - - - -
25/12:13pm 13.9 S 20 27 1015.8 - 0.8 - Partly cloudy 5 - - - -
25/12:06pm 15.1 S 17 27 1015.6 - 0.4 - Partly cloudy 10 - - - -
25/12:00pm 15.5 S 18 24 1015.6 - 0.4 Recent precip. Mostly cloudy 10 - - - -
25/11:30am 15.9 S 13 19 1015.5 - 0.2 - Partly cloudy 10 - - - -
25/11:00am 16.2 S 12 18 1015.2 - 0.2 - Partly cloudy 10 - - - -
25/10:30am 15.6 SSW 14 21 1015.1 - 0.2 - Partly cloudy 10 - - - -
25/10:00am 15.2 SSW 13 20 1014.9 - 0.2 - Partly cloudy 10 - - - -
25/09:30am 14.4 SSW 14 20 1014.6 - 0.0 - Partly cloudy 10 - - - -
25/09:00am 14.1 SSW 7 9 1014.4 - 5.4 - Mostly clear 10 - - - -
25/08:30am 12.6 SW 6 8 1014.0 - 5.4 - - 10 - - - -
25/08:00am 11.4 S 6 8 1013.3 - 5.4 - Partly cloudy 10 - - - -
25/07:30am 10.5 SW 7 11 1012.6 - 5.4 - Partly cloudy 10 - - - -
25/07:00am 8.0 SW 5 6 1011.8 - 5.4 - Partly cloudy 10 - - - -
25/06:30am 8.6 WSW 5 6 1011.3 - 5.4 - Partly cloudy 10 - - - -
25/06:00am 9.4 SSW 5 6 1010.6 - 5.4 - - 10 - - - -
25/05:30am 9.9 SSW 8 11 1010.0 - 5.4 - - 10 - - - -
25/05:00am 10.3 S 13 16 1009.2 - 5.4 - - 10 - - - -
25/04:30am 10.1 S 13 17 1008.5 - 5.4 - Partly cloudy 10 - - - -
25/04:00am 10.4 S 17 23 1008.1 - 5.4 - Partly cloudy 10 - - - -
25/03:30am 10.8 S 16 22 1007.7 - 5.4 - Partly cloudy 10 - - - -
25/03:00am 10.3 SSW 14 19 1007.3 - 5.4 Recent precip. Mostly cloudy 10 - - - -
25/02:30am 10.2 SSW 16 20 1007.0 - 5.0 - Partly cloudy 10 - - - -
25/02:25am 10.2 SSW 17 27 1006.9 - 4.8 - Partly cloudy 10 - - - -
25/02:14am 10.5 SSW 17 24 1006.7 - 4.8 - Partly cloudy 10 - - - -
25/02:00am 10.4 SSW 11 14 1006.2 - 4.6 - Partly cloudy 10 - - - -
25/01:32am 10.4 S 15 26 1005.3 - 4.4 - Partly cloudy 10 - - - -
25/01:30am 10.6 S 13 23 1005.3 - 4.4 - Partly cloudy 10 - - - -
25/01:00am 10.3 S 14 19 1004.8 - 4.2 - Partly cloudy 10 - - - -
25/12:30am 10.2 SSW 12 18 1003.9 - 4.0 - Partly cloudy 10 - - - -
25/12:00am 10.0 SSW 16 23 1003.1 - 4.0 - Cloudy 8 - - - -
 
Date/Time
CST
Temp

°C
Wind Pressure Rain
since 9am
mm
Weather Cloud Vis
km
Sea
Height
m
Swell
Dir
 
Speed
knots
Gust
knots
hPa Trend Height
m
Period
s
Dir
24/11:30pm 9.5 SW 13 19 1002.2 - 4.0 - Partly cloudy 10 - - - -
24/11:00pm 8.0 SW 8 11 1001.8 - 4.0 - - 10 - - - -
24/10:30pm 8.0 SW 7 8 1001.7 - 4.0 - Partly cloudy 10 - - - -
24/10:00pm 7.7 SSW 7 8 1001.3 - 4.0 - Partly cloudy 10 - - - -
24/09:30pm 8.5 WSW 4 6 1000.8 - 4.0 - - 10 - - - -
24/09:00pm 9.6 CALM 0 0 1000.6 - 3.8 - Mostly clear 10 - - - -
24/08:30pm 10.5 NW 7 9 1000.8 - 3.8 - Partly cloudy 10 - - - -
24/08:00pm 11.0 NW 13 19 1001.0 - 3.8 - Partly cloudy 10 - - - -
24/07:30pm 10.9 NNW 15 21 1001.1 - 3.8 - Partly cloudy 7 - - - -
24/07:00pm 10.8 NNW 13 22 1001.7 - 2.8 - Partly cloudy 10 - - - -
24/06:30pm 10.5 WNW 17 26 1002.5 - 2.6 - Partly cloudy 9 - - - -
24/06:17pm 10.9 NW 14 28 1002.6 - 1.8 - Partly cloudy 10 - - - -
24/06:16pm 11.2 NW 14 28 1002.6 - 1.6 - Partly cloudy 10 - - - -
24/06:00pm 11.4 NNW 8 11 1002.9 - 1.4 Recent precip. Cloudy 10 - - - -
24/05:30pm 11.4 NNW 9 14 1003.7 - 0.8 - Partly cloudy 10 - - - -
24/05:00pm 12.3 NW 11 19 1004.3 - 0.8 - Partly cloudy 10 - - - -
24/04:30pm 12.2 NNW 8 15 1004.7 - 0.8 - Partly cloudy 10 - - - -
24/04:00pm 11.4 NW 8 11 1005.6 - 0.8 - Partly cloudy 10 - - - -
24/03:30pm 11.0 WNW 15 27 1005.6 - 0.4 - Partly cloudy 10 - - - -
24/03:18pm 13.4 WNW 18 30 1005.5 - 0.2 - Partly cloudy 10 - - - -
24/03:00pm 15.3 WNW 16 22 1005.5 - 0.2 - Cloudy 10 - - - -
24/02:30pm 15.4 W 17 24 1005.7 - 0.2 - Partly cloudy 10 - - - -
24/02:05pm 14.3 W 18 28 1006.0 - 0.2 - Partly cloudy 10 - - - -
24/02:00pm 13.8 WNW 20 30 1006.0 - 0.2 - Partly cloudy 10 - - - -
24/01:54pm 14.9 WNW 18 28 1005.9 - 0.2 - Partly cloudy 10 - - - -
24/01:30pm 16.5 W 19 27 1005.8 - 0.2 - Partly cloudy 10 - - - -
24/01:00pm 17.4 W 18 24 1005.7 - 0.2 - Partly cloudy 10 - - - -
24/12:40pm 16.1 W 15 25 1006.0 - 0.2 - Partly cloudy 10 - - - -
24/12:30pm 15.6 WSW 19 25 1006.1 - 0.2 - - 10 - - - -
24/12:00pm 15.3 WSW 18 25 1006.5 - 0.2 - Partly cloudy 10 - - - -
24/11:30am 16.4 WSW 17 26 1006.6 - 0.2 - Partly cloudy 10 - - - -
24/11:00am 14.1 WSW 16 21 1006.7 - 0.2 - Partly cloudy 10 - - - -
24/10:30am 14.3 W 13 21 1006.7 - 0.2 - Partly cloudy 10 - - - -
24/10:00am 12.9 W 12 17 1006.8 - 0.2 - Partly cloudy 10 - - - -
24/09:30am 11.7 W 9 15 1007.0 - 0.2 - Cloudy 10 - - - -
24/09:00am 11.3 WSW 13 18 1007.2 - 2.0 - Cloudy 10 - - - -
24/08:30am 11.6 WSW 18 25 1007.0 - 2.0 - Partly cloudy 10 - - - -
24/08:08am 12.0 SW 19 29 1006.8 - 2.0 - Partly cloudy 10 - - - -
24/08:03am 12.1 SW 17 29 1006.6 - 2.0 - Partly cloudy 10 - - - -
24/08:00am 12.4 SW 16 22 1006.6 - 2.0 - Partly cloudy 10 - - - -
24/07:49am 12.6 WNW 17 34 1006.1 - 1.6 - Partly cloudy 5 - - - -
24/07:48am 12.8 WNW 15 34 1005.8 - 0.6 - Partly cloudy 6 - - - -
24/07:46am 14.4 NW 11 27 1005.4 - 0.2 - Partly cloudy 10 - - - -
24/07:30am 15.9 NW 13 19 1005.5 - 0.0 - Partly cloudy 10 - - - -
24/07:00am 15.6 NNW 13 19 1005.6 - 0.0 - Partly cloudy 10 - - - -
24/06:30am 15.7 NNW 13 19 1005.9 - 0.0 - Partly cloudy 10 - - - -
24/06:00am 15.5 NNW 9 13 1006.1 - 0.0 - Cloudy 10 - - - -
24/05:30am 15.7 NNW 11 17 1006.4 - 0.0 - Partly cloudy 10 - - - -
24/05:00am 15.4 NNW 8 10 1006.9 - 0.0 - Partly cloudy 10 - - - -
24/04:30am 15.0 NW 8 12 1007.2 - 0.0 - Partly cloudy 10 - - - -
24/04:00am 11.9 N 3 5 1007.3 - 0.0 - Partly cloudy 10 - - - -
24/03:30am 12.3 NE 3 6 1007.8 - 0.0 - Partly cloudy 10 - - - -
24/03:00am 12.5 CALM 0 0 1008.5 - 0.0 - Cloudy 10 - - - -
24/02:30am 12.8 CALM 0 0 1009.3 - 0.0 - Partly cloudy 10 - - - -
24/02:00am 13.0 CALM 0 0 1009.9 - 0.0 - Partly cloudy 10 - - - -
24/01:30am 12.7 NNW 3 3 1010.4 - 0.0 - Partly cloudy 10 - - - -
24/01:00am 12.5 WNW 4 4 1010.8 - 0.0 - Partly cloudy 10 - - - -
24/12:30am 12.6 WNW 5 6 1010.9 - 0.0 - Partly cloudy 10 - - - -
24/12:00am 12.9 NW 5 6 1011.3 - 0.0 - Cloudy 10 - - - -
 
Date/Time
CST
Temp

°C
Wind Pressure Rain
since 9am
mm
Weather Cloud Vis
km
Sea
Height
m
Swell
Dir
 
Speed
knots
Gust
knots
hPa Trend Height
m
Period
s
Dir
23/11:30pm 12.7 W 6 7 1011.7 - 0.0 - Cloudy 10 - - - -
23/11:00pm 12.8 W 3 4 1012.0 - 0.0 - Cloudy 10 - - - -
23/10:30pm 13.2 WSW 3 4 1012.5 - 0.0 - Partly cloudy 10 - - - -
23/10:00pm 13.1 W 5 7 1013.0 - 0.0 - Partly cloudy 10 - - - -
23/09:30pm 13.4 W 6 8 1013.3 - 0.0 - - 10 - - - -
23/09:00pm 13.7 W 5 6 1013.5 - 0.0 - Cloudy 10 - - - -
23/08:30pm 13.6 WSW 5 8 1013.5 - 0.0 - - 10 - - - -
23/08:00pm 13.9 SW 5 6 1013.6 - 0.0 - - 10 - - - -
23/07:30pm 14.5 SW 6 7 1014.0 - 0.0 - - 10 - - - -
23/07:00pm 14.9 WNW 3 4 1014.0 - 0.0 - Partly cloudy 10 - - - -
23/06:30pm 15.3 NW 4 4 1014.2 - 0.0 - Partly cloudy 10 - - - -
23/06:00pm 15.4 WNW 3 5 1014.2 - 0.0 - Cloudy 10 - - - -

Other Formats:

Comma delimited format used in spreadsheet applications
http://www.bom.gov.au/fwo/IDS60701/IDS60701.95807.axf

JavaScript Object Notation format (JSON) in row-major order
http://www.bom.gov.au/fwo/IDS60701/IDS60701.95807.json